createdAt,value
2024-02-26T00:00:04.926Z,8.625
2024-02-26T00:01:03.635Z,8.625
2024-02-26T00:02:03.529Z,8.625
2024-02-26T00:03:03.539Z,8.625
2024-02-26T00:04:03.116Z,8.625
2024-02-26T00:05:04.038Z,8.625
2024-02-26T00:06:03.189Z,8.625
2024-02-26T00:07:04.390Z,8.625
2024-02-26T00:08:06.580Z,8.625
2024-02-26T00:09:03.781Z,8.625
2024-02-26T00:10:03.503Z,8.625
2024-02-26T00:11:03.775Z,8.625
2024-02-26T00:12:03.595Z,8.625
2024-02-26T00:13:03.213Z,8.625
2024-02-26T00:14:02.756Z,8.625
2024-02-26T00:15:04.070Z,8.625
2024-02-26T00:16:03.780Z,8.625
2024-02-26T00:17:04.053Z,8.593
2024-02-26T00:18:04.243Z,8.604
2024-02-26T00:19:04.048Z,8.614
2024-02-26T00:20:03.592Z,8.572
2024-02-26T00:21:03.344Z,8.572
2024-02-26T00:22:03.046Z,8.583
2024-02-26T00:23:03.778Z,8.562
2024-02-26T00:24:03.530Z,8.583
2024-02-26T00:25:03.383Z,8.583
2024-02-26T00:26:02.980Z,8.562
2024-02-26T00:27:03.997Z,8.562
2024-02-26T00:28:03.610Z,8.562
2024-02-26T00:29:03.414Z,8.562
2024-02-26T00:30:03.497Z,8.562
2024-02-26T00:31:03.199Z,8.562
2024-02-26T00:32:02.985Z,8.562
2024-02-26T00:33:04.003Z,8.562
2024-02-26T00:34:04.169Z,8.562
2024-02-26T00:35:03.492Z,8.562
2024-02-26T00:36:03.205Z,8.562
2024-02-26T00:37:02.887Z,8.562
2024-02-26T00:38:03.497Z,8.562
2024-02-26T00:39:03.484Z,8.562
2024-02-26T00:40:03.351Z,8.562
2024-02-26T00:41:03.139Z,8.562
2024-02-26T00:42:03.115Z,8.562
2024-02-26T00:43:03.731Z,8.562
2024-02-26T00:44:03.449Z,8.562
2024-02-26T00:45:03.392Z,8.562
2024-02-26T00:46:03.174Z,8.562
2024-02-26T00:47:03.148Z,8.562
2024-02-26T00:48:03.960Z,8.562
2024-02-26T00:49:04.546Z,8.562
2024-02-26T00:50:03.506Z,8.562
2024-02-26T00:51:03.405Z,8.562
2024-02-26T00:52:02.979Z,8.562
2024-02-26T00:53:03.858Z,8.562
2024-02-26T00:54:04.127Z,8.562
2024-02-26T00:55:03.495Z,8.562
2024-02-26T00:56:03.331Z,8.562
2024-02-26T00:57:03.171Z,8.562
2024-02-26T00:58:02.933Z,8.562
2024-02-26T00:59:03.760Z,8.562
2024-02-26T01:00:04.736Z,8.562
2024-02-26T01:01:03.056Z,8.562
2024-02-26T01:02:04.088Z,8.562
2024-02-26T01:03:03.109Z,8.562
2024-02-26T01:04:03.962Z,8.562
2024-02-26T01:05:03.467Z,8.562
2024-02-26T01:06:03.806Z,8.562
2024-02-26T01:07:03.402Z,8.544
2024-02-26T01:08:04.218Z,8.537
2024-02-26T01:09:03.641Z,8.562
2024-02-26T01:10:03.309Z,8.551
2024-02-26T01:11:03.218Z,8.562
2024-02-26T01:12:03.029Z,8.562
2024-02-26T01:13:03.786Z,8.551
2024-02-26T01:14:03.473Z,8.562
2024-02-26T01:15:03.786Z,8.541
2024-02-26T01:16:02.989Z,8.531
2024-02-26T01:17:03.937Z,8.531
2024-02-26T01:18:04.300Z,8.510
2024-02-26T01:19:04.089Z,8.5
2024-02-26T01:20:03.810Z,8.5
2024-02-26T01:21:03.440Z,8.5
2024-02-26T01:22:03.004Z,8.5
2024-02-26T01:23:03.830Z,8.5
2024-02-26T01:24:03.718Z,8.5
2024-02-26T01:25:03.286Z,8.5
2024-02-26T01:26:03.062Z,8.5
2024-02-26T01:27:02.926Z,8.5
2024-02-26T01:28:03.657Z,8.5
2024-02-26T01:29:03.380Z,8.5
2024-02-26T01:30:03.409Z,8.5
2024-02-26T01:31:03.228Z,8.5
2024-02-26T01:32:04.004Z,8.5
2024-02-26T01:33:03.248Z,8.468
2024-02-26T01:34:04.368Z,8.5
2024-02-26T01:35:03.481Z,8.5
2024-02-26T01:36:03.502Z,8.5
2024-02-26T01:37:03.015Z,8.5
2024-02-26T01:38:03.706Z,8.5
2024-02-26T01:39:03.534Z,8.5
2024-02-26T01:40:03.281Z,8.5
2024-02-26T01:41:02.805Z,8.5
2024-02-26T01:42:03.764Z,8.5
2024-02-26T01:43:03.297Z,8.5
2024-02-26T01:44:03.177Z,8.5
2024-02-26T01:45:03.529Z,8.5
2024-02-26T01:46:03.040Z,8.479
2024-02-26T01:47:03.936Z,8.479
2024-02-26T01:48:04.445Z,8.468
2024-02-26T01:49:04.170Z,8.437
2024-02-26T01:50:03.518Z,8.447
2024-02-26T01:51:03.430Z,8.437
2024-02-26T01:52:03.154Z,8.437
2024-02-26T01:53:02.704Z,8.437
2024-02-26T01:54:03.917Z,8.437
2024-02-26T01:55:03.451Z,8.437
2024-02-26T01:56:03.262Z,8.437
2024-02-26T01:57:03.148Z,8.437
2024-02-26T01:58:02.789Z,8.437
2024-02-26T01:59:03.723Z,8.437
2024-02-26T02:00:04.718Z,8.437
2024-02-26T02:01:03.378Z,8.437
2024-02-26T02:02:03.248Z,8.437
2024-02-26T02:03:02.934Z,8.437
2024-02-26T02:04:04.011Z,8.437
2024-02-26T02:05:03.441Z,8.447
2024-02-26T02:06:03.586Z,8.447
2024-02-26T02:07:03.297Z,8.437
2024-02-26T02:08:03.807Z,8.437
2024-02-26T02:09:03.802Z,8.447
2024-02-26T02:10:03.406Z,8.458
2024-02-26T02:11:03.401Z,8.437
2024-02-26T02:12:03.383Z,8.437
2024-02-26T02:13:02.903Z,8.437
2024-02-26T02:14:03.715Z,8.437
2024-02-26T02:15:04.472Z,8.437
2024-02-26T02:16:03.838Z,8.437
2024-02-26T02:17:03.811Z,8.437
2024-02-26T02:18:04.126Z,8.447
2024-02-26T02:19:03.800Z,8.437
2024-02-26T02:20:03.576Z,8.437
2024-02-26T02:21:03.297Z,8.437
2024-02-26T02:22:02.790Z,8.437
2024-02-26T02:23:03.552Z,8.437
2024-02-26T02:24:03.239Z,8.437
2024-02-26T02:25:03.100Z,8.437
2024-02-26T02:26:03.694Z,8.437
2024-02-26T02:27:03.538Z,8.437
2024-02-26T02:28:03.317Z,8.437
2024-02-26T02:29:02.807Z,8.437
2024-02-26T02:30:04.216Z,8.437
2024-02-26T02:31:03.917Z,8.437
2024-02-26T02:32:03.851Z,8.437
2024-02-26T02:33:04.131Z,8.437
2024-02-26T02:34:03.856Z,8.437
2024-02-26T02:35:03.354Z,8.437
2024-02-26T02:36:03.021Z,8.437
2024-02-26T02:37:03.894Z,8.437
2024-02-26T02:38:03.752Z,8.437
2024-02-26T02:39:03.673Z,8.437
2024-02-26T02:40:03.505Z,8.437
2024-02-26T02:41:03.388Z,8.437
2024-02-26T02:42:03.288Z,8.437
2024-02-26T02:43:03.084Z,8.437
2024-02-26T02:44:03.968Z,8.437
2024-02-26T02:45:04.122Z,8.437
2024-02-26T02:46:03.787Z,8.437
2024-02-26T02:47:03.810Z,8.437
2024-02-26T02:48:04.021Z,8.437
2024-02-26T02:49:03.516Z,8.406
2024-02-26T02:50:03.164Z,8.375
2024-02-26T02:51:02.885Z,8.375
2024-02-26T02:52:03.580Z,8.375
2024-02-26T02:53:03.414Z,8.375
2024-02-26T02:54:03.336Z,8.375
2024-02-26T02:55:02.978Z,8.375
2024-02-26T02:56:03.704Z,8.375
2024-02-26T02:57:03.865Z,8.375
2024-02-26T02:58:03.652Z,8.375
2024-02-26T02:59:03.314Z,8.375
2024-02-26T03:00:04.445Z,8.375
2024-02-26T03:01:04.047Z,8.375
2024-02-26T03:02:03.638Z,8.375
2024-02-26T03:03:03.417Z,8.375
2024-02-26T03:04:03.180Z,8.375
2024-02-26T03:05:03.134Z,8.375
2024-02-26T03:06:03.999Z,8.375
2024-02-26T03:07:03.981Z,8.375
2024-02-26T03:08:03.295Z,8.375
2024-02-26T03:09:03.332Z,8.375
2024-02-26T03:10:03.019Z,8.375
2024-02-26T03:11:04.034Z,8.375
2024-02-26T03:12:03.970Z,8.375
2024-02-26T03:13:03.469Z,8.375
2024-02-26T03:14:03.276Z,8.375
2024-02-26T03:15:03.458Z,8.375
2024-02-26T03:16:03.058Z,8.375
2024-02-26T03:17:03.965Z,8.375
2024-02-26T03:18:04.267Z,8.375
2024-02-26T03:19:04.302Z,8.375
2024-02-26T03:20:03.847Z,8.375
2024-02-26T03:21:03.659Z,8.364
2024-02-26T03:22:03.382Z,8.375
2024-02-26T03:23:03.061Z,8.375
2024-02-26T03:24:03.981Z,8.375
2024-02-26T03:25:03.771Z,8.375
2024-02-26T03:26:03.469Z,8.375
2024-02-26T03:27:03.392Z,8.375
2024-02-26T03:28:03.095Z,8.375
2024-02-26T03:29:02.934Z,8.375
2024-02-26T03:30:04.182Z,8.375
2024-02-26T03:31:03.955Z,8.375
2024-02-26T03:32:04.131Z,8.375
2024-02-26T03:33:04.223Z,8.375
2024-02-26T03:34:03.991Z,8.375
2024-02-26T03:35:03.595Z,8.375
2024-02-26T03:36:03.581Z,8.375
2024-02-26T03:37:02.813Z,8.375
2024-02-26T03:38:03.657Z,8.375
2024-02-26T03:39:03.422Z,8.375
2024-02-26T03:40:03.465Z,8.375
2024-02-26T03:41:03.365Z,8.375
2024-02-26T03:42:03.123Z,8.375
2024-02-26T03:43:02.876Z,8.375
2024-02-26T03:44:03.671Z,8.375
2024-02-26T03:45:03.796Z,8.375
2024-02-26T03:46:03.572Z,8.375
2024-02-26T03:47:03.439Z,8.375
2024-02-26T03:48:03.672Z,8.375
2024-02-26T03:49:03.416Z,8.375
2024-02-26T03:50:02.892Z,8.362
2024-02-26T03:51:03.797Z,8.338
2024-02-26T03:52:03.327Z,8.349
2024-02-26T03:53:03.091Z,8.357
2024-02-26T03:54:02.915Z,8.375
2024-02-26T03:55:03.843Z,8.375
2024-02-26T03:56:03.555Z,8.375
2024-02-26T03:57:03.512Z,8.375
2024-02-26T03:58:03.142Z,8.375
2024-02-26T03:59:02.873Z,8.375
2024-02-26T04:00:04.985Z,8.375
2024-02-26T04:01:02.986Z,8.375
2024-02-26T04:02:03.713Z,8.375
2024-02-26T04:03:03.446Z,8.375
2024-02-26T04:04:03.262Z,8.375
2024-02-26T04:05:03.279Z,8.375
2024-02-26T04:06:04.105Z,8.375
2024-02-26T04:07:04.158Z,8.375
2024-02-26T04:08:03.138Z,8.375
2024-02-26T04:09:02.961Z,8.375
2024-02-26T04:10:07.617Z,8.375
2024-02-26T04:11:03.835Z,8.375
2024-02-26T04:12:03.415Z,8.375
2024-02-26T04:13:03.069Z,8.375
2024-02-26T04:14:02.837Z,8.375
2024-02-26T04:15:04.072Z,8.375
2024-02-26T04:16:03.762Z,8.375
2024-02-26T04:17:03.710Z,8.375
2024-02-26T04:18:04.066Z,8.375
2024-02-26T04:19:03.526Z,8.375
2024-02-26T04:20:02.967Z,8.375
2024-02-26T04:21:03.809Z,8.375
2024-02-26T04:22:03.695Z,8.375
2024-02-26T04:23:03.340Z,8.375
2024-02-26T04:24:03.473Z,8.375
2024-02-26T04:25:02.991Z,8.375
2024-02-26T04:26:03.803Z,8.333
2024-02-26T04:27:03.721Z,8.333
2024-02-26T04:28:03.318Z,8.354
2024-02-26T04:29:03.061Z,8.364
2024-02-26T04:30:04.517Z,8.343
2024-02-26T04:31:03.139Z,8.322
2024-02-26T04:32:04.102Z,8.312
2024-02-26T04:33:03.234Z,8.312
2024-02-26T04:34:04.368Z,8.312
2024-02-26T04:35:04.131Z,8.312
2024-02-26T04:36:04.180Z,8.312
2024-02-26T04:37:03.779Z,8.312
2024-02-26T04:38:03.368Z,8.312
2024-02-26T04:39:03.302Z,8.312
2024-02-26T04:40:03.229Z,8.312
2024-02-26T04:41:03.058Z,8.312
2024-02-26T04:42:03.849Z,8.312
2024-02-26T04:43:03.320Z,8.312
2024-02-26T04:44:03.275Z,8.312
2024-02-26T04:45:03.565Z,8.312
2024-02-26T04:46:03.133Z,8.312
2024-02-26T04:47:03.253Z,8.281
2024-02-26T04:48:03.402Z,8.25
2024-02-26T04:49:04.330Z,8.291
2024-02-26T04:50:03.530Z,8.301
2024-02-26T04:51:03.262Z,8.260
2024-02-26T04:52:03.045Z,8.25
2024-02-26T04:53:03.787Z,8.25
2024-02-26T04:54:03.596Z,8.260
2024-02-26T04:55:03.251Z,8.301
2024-02-26T04:56:03.118Z,8.312
2024-02-26T04:57:03.115Z,8.260
2024-02-26T04:58:03.966Z,8.260
2024-02-26T04:59:03.798Z,8.270
2024-02-26T05:00:04.705Z,8.281
2024-02-26T05:01:03.180Z,8.260
2024-02-26T05:02:04.009Z,8.25
2024-02-26T05:03:04.202Z,8.260
2024-02-26T05:04:04.074Z,8.25
2024-02-26T05:05:03.805Z,8.25
2024-02-26T05:06:03.639Z,8.25
2024-02-26T05:07:03.658Z,8.25
2024-02-26T05:08:02.932Z,8.25
2024-02-26T05:09:03.955Z,8.25
2024-02-26T05:10:03.653Z,8.25
2024-02-26T05:11:03.628Z,8.25
2024-02-26T05:12:03.332Z,8.25
2024-02-26T05:13:03.026Z,8.25
2024-02-26T05:14:02.786Z,8.260
2024-02-26T05:15:04.098Z,8.25
2024-02-26T05:16:03.965Z,8.25
2024-02-26T05:17:04.023Z,8.25
2024-02-26T05:18:04.825Z,8.25
2024-02-26T05:19:04.032Z,8.25
2024-02-26T05:20:03.787Z,8.25
2024-02-26T05:21:03.493Z,8.25
2024-02-26T05:22:03.167Z,8.25
2024-02-26T05:23:02.870Z,8.241
2024-02-26T05:24:03.860Z,8.25
2024-02-26T05:25:03.422Z,8.25
2024-02-26T05:26:03.424Z,8.287
2024-02-26T05:27:03.488Z,8.285
2024-02-26T05:28:03.245Z,8.287
2024-02-26T05:29:03.822Z,8.25
2024-02-26T05:30:03.985Z,8.25
2024-02-26T05:31:03.528Z,8.267
2024-02-26T05:32:03.437Z,8.25
2024-02-26T05:33:03.493Z,8.25
2024-02-26T05:34:03.532Z,8.25
2024-02-26T05:35:04.087Z,8.260
2024-02-26T05:36:03.705Z,8.25
2024-02-26T05:37:03.372Z,8.291
2024-02-26T05:38:03.093Z,8.260
2024-02-26T05:39:03.022Z,8.281
2024-02-26T05:40:03.688Z,8.25
2024-02-26T05:41:03.495Z,8.25
2024-02-26T05:42:03.295Z,8.25
2024-02-26T05:43:03.776Z,8.25
2024-02-26T05:44:03.384Z,8.25
2024-02-26T05:45:03.533Z,8.25
2024-02-26T05:46:03.270Z,8.25
2024-02-26T05:47:07.620Z,8.25
2024-02-26T05:48:04.074Z,8.25
2024-02-26T05:49:03.704Z,8.25
2024-02-26T05:50:03.304Z,8.25
2024-02-26T05:51:03.187Z,8.25
2024-02-26T05:52:02.802Z,8.25
2024-02-26T05:53:03.643Z,8.25
2024-02-26T05:54:03.475Z,8.25
2024-02-26T05:55:02.959Z,8.25
2024-02-26T05:56:03.770Z,8.25
2024-02-26T05:57:03.791Z,8.25
2024-02-26T05:58:03.315Z,8.25
2024-02-26T05:59:03.093Z,8.25
2024-02-26T06:00:05.381Z,8.25
2024-02-26T06:01:03.880Z,8.25
2024-02-26T06:02:03.527Z,8.25
2024-02-26T06:03:03.127Z,8.25
2024-02-26T06:04:03.968Z,8.25
2024-02-26T06:05:03.631Z,8.25
2024-02-26T06:06:03.634Z,8.25
2024-02-26T06:07:03.197Z,8.25
2024-02-26T06:08:02.844Z,8.25
2024-02-26T06:09:03.711Z,8.25
2024-02-26T06:10:03.457Z,8.25
2024-02-26T06:11:03.488Z,8.25
2024-02-26T06:12:03.300Z,8.25
2024-02-26T06:13:02.883Z,8.25
2024-02-26T06:14:05.298Z,8.25
2024-02-26T06:15:04.093Z,8.25
2024-02-26T06:16:03.512Z,8.218
2024-02-26T06:17:03.528Z,8.239
2024-02-26T06:18:03.529Z,8.25
2024-02-26T06:19:03.592Z,8.25
2024-02-26T06:20:03.404Z,8.25
2024-02-26T06:21:04.085Z,8.239
2024-02-26T06:22:03.811Z,8.25
2024-02-26T06:23:03.566Z,8.25
2024-02-26T06:24:03.270Z,8.25
2024-02-26T06:25:03.192Z,8.239
2024-02-26T06:26:02.787Z,8.25
2024-02-26T06:27:03.989Z,8.239
2024-02-26T06:28:03.557Z,8.239
2024-02-26T06:29:03.396Z,8.187
2024-02-26T06:30:03.400Z,8.187
2024-02-26T06:31:03.209Z,8.218
2024-02-26T06:32:03.112Z,8.218
2024-02-26T06:33:04.181Z,8.208
2024-02-26T06:34:04.057Z,8.25
2024-02-26T06:35:08.517Z,8.25
2024-02-26T06:36:03.829Z,8.25
2024-02-26T06:37:03.583Z,8.25
2024-02-26T06:38:03.272Z,8.25
2024-02-26T06:39:03.290Z,8.25
2024-02-26T06:40:02.998Z,8.25
2024-02-26T06:41:03.137Z,8.25
2024-02-26T06:42:04.129Z,8.25
2024-02-26T06:43:03.619Z,6.800
2024-02-26T06:44:03.408Z,8.197
2024-02-26T06:45:03.444Z,8.187
2024-02-26T06:46:03.377Z,8.25
2024-02-26T06:47:03.870Z,8.25
2024-02-26T06:48:04.287Z,8.25
2024-02-26T06:49:04.053Z,8.213
2024-02-26T06:50:03.720Z,8.187
2024-02-26T06:51:03.202Z,8.204
2024-02-26T06:52:02.822Z,8.187
2024-02-26T06:53:03.560Z,8.187
2024-02-26T06:54:03.418Z,8.197
2024-02-26T06:55:03.239Z,8.187
2024-02-26T06:56:02.936Z,8.197
2024-02-26T06:57:03.998Z,8.197
2024-02-26T06:58:03.616Z,8.208
2024-02-26T06:59:03.560Z,8.197
2024-02-26T07:00:04.741Z,8.197
2024-02-26T07:01:03.742Z,8.218
2024-02-26T07:02:03.485Z,8.218
2024-02-26T07:03:03.466Z,8.229
2024-02-26T07:04:03.369Z,8.239
2024-02-26T07:05:02.967Z,8.25
2024-02-26T07:06:03.272Z,8.229
2024-02-26T07:07:04.084Z,8.197
2024-02-26T07:08:03.266Z,8.187
2024-02-26T07:09:03.275Z,8.187
2024-02-26T07:10:02.929Z,8.187
2024-02-26T07:11:03.213Z,8.187
2024-02-26T07:12:03.039Z,8.187
2024-02-26T07:13:03.671Z,8.187
2024-02-26T07:14:03.484Z,8.187
2024-02-26T07:15:03.595Z,8.197
2024-02-26T07:16:03.384Z,8.187
2024-02-26T07:17:03.532Z,8.197
2024-02-26T07:18:03.726Z,8.187
2024-02-26T07:19:03.369Z,8.187
2024-02-26T07:20:07.806Z,8.187
2024-02-26T07:21:03.789Z,8.187
2024-02-26T07:22:03.307Z,8.187
2024-02-26T07:23:03.256Z,8.187
2024-02-26T07:24:03.999Z,8.187
2024-02-26T07:25:03.677Z,8.187
2024-02-26T07:26:03.602Z,8.187
2024-02-26T07:27:03.376Z,8.187
2024-02-26T07:28:02.898Z,8.187
2024-02-26T07:29:03.847Z,8.187
2024-02-26T07:30:04.129Z,8.187
2024-02-26T07:31:03.908Z,8.187
2024-02-26T07:32:03.895Z,8.187
2024-02-26T07:33:03.658Z,8.187
2024-02-26T07:34:04.007Z,8.187
2024-02-26T07:35:03.516Z,8.187
2024-02-26T07:36:03.005Z,8.187
2024-02-26T07:37:03.821Z,8.187
2024-02-26T07:38:03.708Z,8.187
2024-02-26T07:39:03.598Z,8.187
2024-02-26T07:40:03.333Z,8.187
2024-02-26T07:41:04.772Z,8.187
2024-02-26T07:42:03.187Z,8.187
2024-02-26T07:43:03.837Z,8.187
2024-02-26T07:44:03.698Z,8.187
2024-02-26T07:45:03.967Z,8.187
2024-02-26T07:46:03.636Z,8.187
2024-02-26T07:47:03.349Z,8.187
2024-02-26T07:48:03.424Z,8.187
2024-02-26T07:49:03.283Z,8.187
2024-02-26T07:50:04.196Z,8.187
2024-02-26T07:51:03.750Z,8.187
2024-02-26T07:52:03.469Z,8.187
2024-02-26T07:53:03.406Z,8.187
2024-02-26T07:54:03.167Z,8.187
2024-02-26T07:55:07.991Z,8.187
2024-02-26T07:56:03.121Z,8.187
2024-02-26T07:57:03.063Z,8.176
2024-02-26T07:58:04.243Z,8.187
2024-02-26T07:59:03.572Z,8.187
2024-02-26T08:00:04.804Z,8.187
2024-02-26T08:01:03.413Z,8.187
2024-02-26T08:02:03.060Z,8.187
2024-02-26T08:03:03.828Z,8.187
2024-02-26T08:04:04.735Z,8.187
2024-02-26T08:05:03.843Z,8.187
2024-02-26T08:06:03.853Z,8.187
2024-02-26T08:07:03.615Z,8.187
2024-02-26T08:08:03.137Z,8.187
2024-02-26T08:09:04.005Z,8.187
2024-02-26T08:10:03.781Z,8.187
2024-02-26T08:11:03.666Z,8.187
2024-02-26T08:12:03.408Z,8.187
2024-02-26T08:13:03.192Z,8.187
2024-02-26T08:14:03.648Z,8.187
2024-02-26T08:15:04.149Z,8.187
2024-02-26T08:16:03.868Z,8.187
2024-02-26T08:17:03.678Z,8.187
2024-02-26T08:18:03.952Z,8.187
2024-02-26T08:19:03.694Z,8.187
2024-02-26T08:20:03.456Z,8.187
2024-02-26T08:21:03.437Z,8.187
2024-02-26T08:22:05.919Z,8.187
2024-02-26T08:23:03.938Z,8.187
2024-02-26T08:24:03.877Z,8.187
2024-02-26T08:25:03.552Z,8.187
2024-02-26T08:26:03.264Z,8.187
2024-02-26T08:27:03.180Z,8.187
2024-02-26T08:28:03.833Z,8.187
2024-02-26T08:29:03.707Z,8.187
2024-02-26T08:30:04.206Z,8.187
2024-02-26T08:31:03.607Z,8.187
2024-02-26T08:32:03.596Z,8.187
2024-02-26T08:33:03.662Z,8.187
2024-02-26T08:34:03.753Z,8.187
2024-02-26T08:35:03.588Z,8.187
2024-02-26T08:36:03.175Z,8.187
2024-02-26T08:37:03.904Z,8.187
2024-02-26T08:38:03.609Z,8.187
2024-02-26T08:39:03.648Z,8.187
2024-02-26T08:40:10.780Z,8.187
2024-02-26T08:41:03.949Z,8.187
2024-02-26T08:42:04.135Z,8.187
2024-02-26T08:43:03.658Z,8.187
2024-02-26T08:44:03.465Z,8.187
2024-02-26T08:45:03.637Z,8.187
2024-02-26T08:46:03.633Z,8.187
2024-02-26T08:47:03.462Z,8.187
2024-02-26T08:48:03.635Z,8.187
2024-02-26T08:49:03.672Z,8.187
2024-02-26T08:50:04.086Z,8.187
2024-02-26T08:51:03.956Z,8.187
2024-02-26T08:52:03.582Z,8.187
2024-02-26T08:53:08.111Z,8.187
2024-02-26T08:54:03.208Z,8.197
2024-02-26T08:55:04.029Z,8.187
2024-02-26T08:56:03.016Z,8.187
2024-02-26T08:57:04.157Z,8.208
2024-02-26T08:58:03.477Z,8.218
2024-02-26T08:59:03.451Z,8.239
2024-02-26T09:00:04.713Z,8.197
2024-02-26T09:01:03.528Z,8.187
2024-02-26T09:02:03.411Z,8.197
2024-02-26T09:03:06.594Z,8.187
2024-02-26T09:04:03.719Z,8.187
2024-02-26T09:05:03.581Z,8.187
2024-02-26T09:06:03.580Z,8.187
2024-02-26T09:07:03.330Z,8.187
2024-02-26T09:08:03.162Z,8.187
2024-02-26T09:09:03.355Z,8.197
2024-02-26T09:10:03.177Z,8.208
2024-02-26T09:11:03.028Z,8.197
2024-02-26T09:12:04.274Z,8.208
2024-02-26T09:13:03.563Z,8.187
2024-02-26T09:14:03.685Z,8.218
2024-02-26T09:15:03.801Z,8.25
2024-02-26T09:16:03.560Z,8.239
2024-02-26T09:17:03.526Z,8.239
2024-02-26T09:18:03.991Z,8.218
2024-02-26T09:19:03.843Z,8.239
2024-02-26T09:20:03.434Z,8.25
2024-02-26T09:21:03.303Z,8.25
2024-02-26T09:22:03.464Z,8.25
2024-02-26T09:23:03.351Z,8.25
2024-02-26T09:24:03.624Z,8.25
2024-02-26T09:25:03.378Z,8.25
2024-02-26T09:26:03.306Z,8.239
2024-02-26T09:27:03.152Z,8.229
2024-02-26T09:28:03.027Z,8.239
2024-02-26T09:29:03.091Z,8.25
2024-02-26T09:30:04.579Z,8.25
2024-02-26T09:31:04.072Z,8.25
2024-02-26T09:32:03.982Z,8.25
2024-02-26T09:33:04.019Z,8.25
2024-02-26T09:34:04.503Z,8.25
2024-02-26T09:35:03.436Z,8.25
2024-02-26T09:36:03.275Z,8.25
2024-02-26T09:37:21.614Z,8.25
2024-02-26T09:38:04.044Z,8.25
2024-02-26T09:39:03.487Z,8.25
2024-02-26T09:40:03.247Z,8.25
2024-02-26T09:41:03.140Z,8.25
2024-02-26T09:42:03.143Z,8.25
2024-02-26T09:43:03.470Z,8.25
2024-02-26T09:44:03.147Z,8.25
2024-02-26T09:45:03.931Z,8.25
2024-02-26T09:46:06.350Z,8.25
2024-02-26T09:47:03.712Z,8.25
2024-02-26T09:48:04.365Z,8.25
2024-02-26T09:49:04.104Z,8.25
2024-02-26T09:50:04.063Z,8.25
2024-02-26T09:51:03.749Z,8.25
2024-02-26T09:52:03.605Z,8.25
2024-02-26T09:53:03.630Z,8.281
2024-02-26T09:54:09.209Z,8.312
2024-02-26T09:55:03.558Z,8.312
2024-02-26T09:56:03.580Z,8.312
2024-02-26T09:57:05.789Z,8.312
2024-02-26T09:58:04.063Z,8.312
2024-02-26T09:59:03.940Z,8.312
2024-02-26T10:00:05.255Z,8.312
2024-02-26T10:01:04.132Z,8.312
2024-02-26T10:02:04.257Z,8.312
2024-02-26T10:03:03.288Z,8.312
2024-02-26T10:04:03.091Z,8.312
2024-02-26T10:05:03.504Z,8.312
2024-02-26T10:06:03.417Z,8.312
2024-02-26T10:07:03.404Z,8.312
2024-02-26T10:08:03.272Z,8.312
2024-02-26T10:09:03.432Z,8.312
2024-02-26T10:10:03.278Z,8.312
2024-02-26T10:11:03.194Z,8.312
2024-02-26T10:12:03.274Z,8.312
2024-02-26T10:13:03.248Z,8.312
2024-02-26T10:14:03.931Z,8.312
2024-02-26T10:15:04.194Z,8.312
2024-02-26T10:16:03.919Z,8.312
2024-02-26T10:17:03.931Z,8.312
2024-02-26T10:18:04.310Z,8.301
2024-02-26T10:19:04.095Z,8.291
2024-02-26T10:20:04.409Z,8.312
2024-02-26T10:21:03.597Z,8.312
2024-02-26T10:22:03.333Z,8.312
2024-02-26T10:23:03.218Z,8.312
2024-02-26T10:24:03.073Z,8.312
2024-02-26T10:25:03.382Z,8.312
2024-02-26T10:26:03.195Z,8.312
2024-02-26T10:27:03.458Z,8.312
2024-02-26T10:28:03.257Z,8.312
2024-02-26T10:29:03.128Z,8.312
2024-02-26T10:30:03.890Z,8.312
2024-02-26T10:31:03.758Z,8.312
2024-02-26T10:32:03.746Z,8.312
2024-02-26T10:33:03.772Z,8.312
2024-02-26T10:34:06.526Z,8.270
2024-02-26T10:35:03.884Z,8.312
2024-02-26T10:36:03.754Z,8.312
2024-02-26T10:37:03.848Z,8.291
2024-02-26T10:38:03.408Z,8.301
2024-02-26T10:39:03.397Z,8.291
2024-02-26T10:40:03.424Z,8.312
2024-02-26T10:41:03.251Z,8.312
2024-02-26T10:42:03.133Z,8.312
2024-02-26T10:43:03.941Z,8.312
2024-02-26T10:44:03.783Z,8.312
2024-02-26T10:45:03.990Z,8.312
2024-02-26T10:46:03.551Z,8.312
2024-02-26T10:47:03.711Z,8.312
2024-02-26T10:48:03.811Z,8.312
2024-02-26T10:49:03.652Z,8.312
2024-02-26T10:50:03.837Z,8.312
2024-02-26T10:51:03.415Z,8.312
2024-02-26T10:52:03.252Z,8.312
2024-02-26T10:53:03.197Z,8.312
2024-02-26T10:54:03.512Z,8.312
2024-02-26T10:55:03.545Z,8.312
2024-02-26T10:56:03.293Z,8.312
2024-02-26T10:57:03.670Z,8.312
2024-02-26T10:58:03.355Z,8.312
2024-02-26T10:59:03.207Z,8.312
2024-02-26T11:00:05.098Z,8.312
2024-02-26T11:01:04.062Z,8.312
2024-02-26T11:02:03.823Z,8.312
2024-02-26T11:03:03.633Z,8.312
2024-02-26T11:04:03.972Z,8.312
2024-02-26T11:05:03.652Z,8.312
2024-02-26T11:06:03.772Z,8.312
2024-02-26T11:07:03.890Z,8.322
2024-02-26T11:08:03.602Z,8.312
2024-02-26T11:09:03.510Z,8.343
2024-02-26T11:10:03.640Z,8.312
2024-02-26T11:11:03.642Z,8.312
2024-02-26T11:12:03.500Z,8.312
2024-02-26T11:13:03.353Z,8.312
2024-02-26T11:14:03.595Z,8.322
2024-02-26T11:15:04.047Z,8.312
2024-02-26T11:16:03.563Z,8.312
2024-02-26T11:17:03.650Z,8.322
2024-02-26T11:18:03.659Z,8.312
2024-02-26T11:19:03.726Z,8.312
2024-02-26T11:20:03.460Z,8.312
2024-02-26T11:21:03.619Z,8.312
2024-02-26T11:23:03.493Z,8.312
2024-02-26T11:24:03.607Z,8.312
2024-02-26T11:25:03.663Z,8.333
2024-02-26T11:26:03.483Z,8.354
2024-02-26T11:27:03.558Z,8.354
2024-02-26T11:28:03.290Z,8.312
2024-02-26T11:29:03.202Z,8.343
2024-02-26T11:30:04.044Z,8.333
2024-02-26T11:31:03.916Z,8.364
2024-02-26T11:32:03.994Z,8.375
2024-02-26T11:33:03.883Z,8.375
2024-02-26T11:34:04.040Z,8.375
2024-02-26T11:35:04.069Z,8.375
2024-02-26T11:36:03.595Z,8.375
2024-02-26T11:37:03.420Z,8.375
2024-02-26T11:38:03.480Z,8.375
2024-02-26T11:39:03.761Z,8.375
2024-02-26T11:40:03.641Z,8.375
2024-02-26T11:41:03.503Z,8.329
2024-02-26T11:42:03.456Z,8.354
2024-02-26T11:43:03.689Z,8.375
2024-02-26T11:44:03.666Z,8.375
2024-02-26T11:45:03.979Z,8.375
2024-02-26T11:46:03.641Z,8.375
2024-02-26T11:47:03.639Z,8.375
2024-02-26T11:48:03.957Z,8.375
2024-02-26T11:49:03.956Z,8.375
2024-02-26T11:50:03.676Z,8.375
2024-02-26T11:51:03.661Z,8.375
2024-02-26T11:52:03.645Z,8.375
2024-02-26T11:53:03.673Z,8.375
2024-02-26T11:54:03.604Z,8.375
2024-02-26T11:55:03.899Z,8.375
2024-02-26T11:56:03.607Z,8.375
2024-02-26T11:57:03.621Z,8.375
2024-02-26T11:58:03.330Z,8.375
2024-02-26T11:59:03.937Z,8.375
2024-02-26T12:00:04.671Z,8.375
2024-02-26T12:01:03.962Z,8.375
2024-02-26T12:02:04.327Z,8.375
2024-02-26T12:03:03.835Z,8.343
2024-02-26T12:04:03.525Z,8.322
2024-02-26T12:05:03.976Z,8.375
2024-02-26T12:06:03.743Z,8.375
2024-02-26T12:07:03.885Z,8.375
2024-02-26T12:08:08.523Z,8.375
2024-02-26T12:09:03.463Z,8.343
2024-02-26T12:10:03.699Z,8.312
2024-02-26T12:11:03.824Z,8.364
2024-02-26T12:12:03.924Z,8.333
2024-02-26T12:13:03.815Z,8.375
2024-02-26T12:14:03.563Z,8.375
2024-02-26T12:15:04.278Z,8.375
2024-02-26T12:16:03.832Z,8.375
2024-02-26T12:17:03.777Z,8.375
2024-02-26T12:18:04.132Z,8.375
2024-02-26T12:19:03.884Z,8.375
2024-02-26T12:20:04.185Z,8.375
2024-02-26T12:21:04.299Z,8.375
2024-02-26T12:22:03.594Z,8.375
2024-02-26T12:23:03.685Z,8.399
2024-02-26T12:24:03.616Z,8.385
2024-02-26T12:25:03.665Z,8.375
2024-02-26T12:26:10.711Z,8.375
2024-02-26T12:27:04.070Z,8.375
2024-02-26T12:28:03.422Z,8.375
2024-02-26T12:29:03.430Z,8.375
2024-02-26T12:30:03.987Z,8.387
2024-02-26T12:31:03.790Z,8.385
2024-02-26T12:32:08.337Z,8.375
2024-02-26T12:33:04.092Z,8.375
2024-02-26T12:34:04.109Z,8.375
2024-02-26T12:35:04.248Z,8.375
2024-02-26T12:36:03.304Z,8.375
2024-02-26T12:37:03.729Z,8.375
2024-02-26T12:38:03.591Z,8.375
2024-02-26T12:39:03.686Z,8.406
2024-02-26T12:40:03.781Z,8.426
2024-02-26T12:41:03.794Z,8.395
2024-02-26T12:42:04.363Z,8.416
2024-02-26T12:43:03.436Z,8.406
2024-02-26T12:44:03.468Z,8.385
2024-02-26T12:45:04.015Z,8.406
2024-02-26T12:46:03.766Z,8.395
2024-02-26T12:47:03.912Z,8.416
2024-02-26T12:48:04.025Z,8.426
2024-02-26T12:49:03.914Z,8.437
2024-02-26T12:50:09.392Z,8.437
2024-02-26T12:51:03.183Z,8.437
2024-02-26T12:52:03.492Z,8.437
2024-02-26T12:53:03.260Z,8.437
2024-02-26T12:54:03.308Z,8.437
2024-02-26T12:55:03.367Z,8.437
2024-02-26T12:56:08.066Z,8.437
2024-02-26T12:57:03.690Z,8.437
2024-02-26T12:58:03.526Z,8.437
2024-02-26T12:59:03.756Z,8.437